Time;durP1;ratioP1;P1;durP2;ratioP2;P2;SDS_P1;SDS_P2;PMS_P1;PMS_P2;Temp;Humidity;BMP_temperature;BMP_pressure;BME280_temperature;BME280_humidity;BME280_pressure;Samples;Min_cycle;Max_cycle;Signal;HPM_P1;HPM_P2
2022/04/26 03:37:20;;;;;;;21.65;14.10;;;;;;;8.65;100.00;98550.56;5043415;28;20179;-77
2022/04/26 03:39:47;;;;;;;20.38;14.05;;;;;;;8.63;100.00;98572.41;5051274;28;20399;-76
2022/04/26 03:42:14;;;;;;;21.42;14.57;;;;;;;8.71;100.00;98576.91;5048271;28;20045;-76
2022/04/26 03:44:42;;;;;;;20.50;14.05;;;;;;;8.56;100.00;98562.53;5051025;28;20049;-77
2022/04/26 03:47:09;;;;;;;22.05;15.27;;;;;;;8.57;100.00;98558.78;5046360;28;20126;-77
2022/04/26 03:49:37;;;;;;;22.27;14.73;;;;;;;8.79;100.00;98590.38;5051419;28;20051;-77
2022/04/26 03:52:04;;;;;;;21.15;14.07;;;;;;;8.66;100.00;98574.75;5047128;28;20068;-77
2022/04/26 03:54:30;;;;;;;23.20;14.45;;;;;;;8.74;100.00;98589.25;5051053;28;20048;-77
2022/04/26 03:56:58;;;;;;;22.77;16.27;;;;;;;8.80;100.00;98592.03;5049405;28;20084;-77
2022/04/26 03:59:24;;;;;;;24.85;15.80;;;;;;;8.64;100.00;98563.28;5049827;28;20119;-77
2022/04/26 04:01:51;;;;;;;25.58;14.90;;;;;;;8.68;100.00;98578.09;5042089;28;20429;-77
2022/04/26 04:04:18;;;;;;;24.70;15.52;;;;;;;8.80;100.00;98585.78;5050177;28;20136;-77
2022/04/26 04:06:45;;;;;;;26.73;15.98;;;;;;;8.59;100.00;98567.56;5049608;28;20049;-77
2022/04/26 04:09:12;;;;;;;26.35;16.02;;;;;;;8.61;100.00;98576.34;5047411;28;20049;-78
2022/04/26 04:11:39;;;;;;;21.60;14.65;;;;;;;8.58;100.00;98582.13;5050040;28;20060;-76
2022/04/26 04:14:05;;;;;;;24.85;16.13;;;;;;;8.54;100.00;98595.22;5045936;28;20049;-77
2022/04/26 04:16:32;;;;;;;22.60;15.85;;;;;;;8.47;100.00;98572.59;5045613;28;20058;-77
2022/04/26 04:21:43;;;;;;;24.83;16.25;;;;;;;8.73;100.00;98610.09;5045315;28;20060;-76
2022/04/26 04:24:11;;;;;;;22.52;14.50;;;;;;;8.45;100.00;98580.09;5046912;28;20056;-76
2022/04/26 04:26:37;;;;;;;25.95;15.85;;;;;;;8.49;100.00;98579.53;5048896;28;20056;-76
2022/04/26 04:29:05;;;;;;;22.35;15.50;;;;;;;8.62;100.00;98608.66;5049453;28;20049;-77
2022/04/26 04:31:32;;;;;;;24.63;14.88;;;;;;;8.52;100.00;98600.00;5045220;28;20057;-77
2022/04/26 04:33:58;;;;;;;25.42;16.08;;;;;;;8.60;100.00;98599.88;5046592;28;20052;-77
2022/04/26 04:36:25;;;;;;;24.45;16.23;;;;;;;8.73;100.00;98612.81;5048528;28;20051;-77
2022/04/26 04:38:51;;;;;;;25.05;15.50;;;;;;;8.56;100.00;98593.16;5050257;28;20056;-76
2022/04/26 04:41:19;;;;;;;24.63;15.25;;;;;;;8.49;100.00;98593.06;5049387;28;20496;-77
2022/04/26 04:43:46;;;;;;;24.13;15.88;;;;;;;8.60;100.00;98610.72;5046767;28;20044;-77
2022/04/26 04:46:12;;;;;;;24.23;15.13;;;;;;;8.50;100.00;98583.06;5049403;28;20052;-77
2022/04/26 04:48:39;;;;;;;23.92;15.32;;;;;;;8.52;100.00;98600.00;5046351;28;20045;-77
2022/04/26 04:51:07;;;;;;;24.02;15.20;;;;;;;8.64;100.00;98614.75;5048241;28;20080;-77
2022/04/26 04:53:34;;;;;;;24.60;15.90;;;;;;;8.57;100.00;98600.25;5047349;28;20136;-77
2022/04/26 04:56:01;;;;;;;25.30;16.00;;;;;;;8.66;100.00;98622.69;5045910;28;20045;-77
2022/04/26 04:58:29;;;;;;;23.95;16.48;;;;;;;8.66;100.00;98630.81;5046353;28;20057;-77
2022/04/26 05:00:55;;;;;;;23.27;15.40;;;;;;;8.61;100.00;98617.84;5047220;28;20386;-77
2022/04/26 05:03:22;;;;;;;23.65;14.98;;;;;;;8.71;100.00;98631.09;5046082;28;20053;-76
2022/04/26 05:05:48;;;;;;;27.40;16.25;;;;;;;8.55;100.00;98610.47;5048811;28;20052;-77
2022/04/26 05:08:15;;;;;;;25.75;16.85;;;;;;;8.77;100.00;98629.53;5049228;28;20045;-77
2022/04/26 05:10:42;;;;;;;25.15;15.70;;;;;;;8.62;100.00;98602.41;5048719;28;20430;-77
2022/04/26 05:13:08;;;;;;;27.00;17.42;;;;;;;8.62;100.00;98597.00;5043859;28;20060;-77
2022/04/26 05:15:38;;;;;;;23.33;14.77;;;;;;;8.78;100.00;98621.19;5046621;28;20364;-77
2022/04/26 05:18:05;;;;;;;22.48;14.93;;;;;;;8.72;100.00;98621.94;5049853;28;20049;-76
2022/04/26 05:20:31;;;;;;;23.88;14.63;;;;;;;8.54;100.00;98589.81;5049780;28;20045;-76
2022/04/26 05:25:42;;;;;;;21.88;14.40;;;;;;;8.81;100.00;98620.00;5044045;28;20417;-77
2022/04/26 05:28:08;;;;;;;19.05;12.52;;;;;;;8.67;100.00;98608.09;5043951;28;20049;-77
2022/04/26 05:30:36;;;;;;;19.42;12.60;;;;;;;8.73;100.00;98614.66;5051094;28;20608;-77
2022/04/26 05:33:03;;;;;;;17.55;11.73;;;;;;;8.70;100.00;98606.91;5052117;28;20053;-77
2022/04/26 05:35:29;;;;;;;17.10;11.63;;;;;;;8.79;100.00;98612.06;5049990;28;20489;-76
2022/04/26 05:37:56;;;;;;;15.75;11.05;;;;;;;8.96;100.00;98630.84;5050800;28;20385;-77
2022/04/26 05:40:23;;;;;;;16.35;10.30;;;;;;;8.89;100.00;98617.19;5049887;28;20075;-76
2022/04/26 05:42:49;;;;;;;14.80;9.43;;;;;;;8.99;100.00;98614.19;5050885;28;20064;-76
2022/04/26 05:45:16;;;;;;;14.75;9.50;;;;;;;9.06;100.00;98615.09;5053746;28;20049;-77
2022/04/26 05:47:44;;;;;;;14.10;9.65;;;;;;;8.97;100.00;98608.09;5051624;28;20079;-76
2022/04/26 05:50:11;;;;;;;14.35;9.68;;;;;;;8.85;100.00;98605.88;5052018;28;20064;-76
2022/04/26 05:52:38;;;;;;;12.35;8.68;;;;;;;8.98;100.00;98634.19;5050832;28;20067;-76
2022/04/26 05:55:07;;;;;;;12.82;8.73;;;;;;;8.90;100.00;98623.44;5051317;28;20049;-76
2022/04/26 05:57:37;;;;;;;14.80;9.05;;;;;;;8.87;100.00;98613.81;5053265;28;20120;-76
2022/04/26 06:00:04;;;;;;;14.68;8.68;;;;;;;8.91;100.00;98615.09;5051239;28;20040;-77
2022/04/26 06:02:31;;;;;;;14.35;9.10;;;;;;;9.15;100.00;98641.13;5049656;28;20053;-76
2022/04/26 06:04:59;;;;;;;14.77;9.52;;;;;;;8.98;100.00;98612.50;5045002;28;20060;-76
2022/04/26 06:07:25;;;;;;;14.70;9.95;;;;;;;8.94;100.00;98627.47;5052521;28;20052;-76
2022/04/26 06:09:53;;;;;;;13.77;9.07;;;;;;;8.94;100.00;98619.31;5050614;28;20124;-76
2022/04/26 06:12:20;;;;;;;16.55;9.93;;;;;;;9.01;100.00;98607.53;5050145;28;20135;-76
2022/04/26 06:14:46;;;;;;;18.08;12.27;;;;;;;9.07;100.00;98621.38;5052689;28;20501;-77
2022/04/26 06:17:13;;;;;;;15.90;11.23;;;;;;;9.12;100.00;98624.38;5052386;28;20049;-76
2022/04/26 06:19:39;;;;;;;19.88;12.43;;;;;;;9.14;100.00;98623.16;5052900;28;20059;-76
2022/04/26 06:22:07;;;;;;;17.33;11.80;;;;;;;9.14;100.00;98635.88;5050364;28;20045;-76
2022/04/26 06:24:33;;;;;;;30.30;16.40;;;;;;;9.12;100.00;98646.06;5048677;28;20164;-76
2022/04/26 06:27:00;;;;;;;22.15;13.18;;;;;;;8.97;100.00;98643.34;5050119;28;20519;-76
2022/04/26 06:29:26;;;;;;;15.35;11.05;;;;;;;8.96;100.00;98666.91;5052377;28;20041;-76
2022/04/26 06:31:53;;;;;;;22.73;12.00;;;;;;;8.86;100.00;98658.22;5047264;28;20515;-76
2022/04/26 06:34:19;;;;;;;15.65;11.23;;;;;;;8.65;100.00;98642.69;5051859;28;20049;-76
2022/04/26 06:36:46;;;;;;;15.30;10.82;;;;;;;8.73;100.00;98637.19;5050587;28;20045;-76
2022/04/26 06:39:14;;;;;;;15.43;10.82;;;;;;;8.72;100.00;98651.75;5047667;28;20072;-76
2022/04/26 06:41:41;;;;;;;16.10;11.02;;;;;;;8.81;100.00;98631.66;5045696;28;20075;-76
2022/04/26 06:44:08;;;;;;;21.20;13.48;;;;;;;8.97;100.00;98654.19;5040365;28;20425;-76
2022/04/26 06:46:36;;;;;;;18.23;12.50;;;;;;;8.81;100.00;98628.13;5044500;28;20053;-75
2022/04/26 06:49:02;;;;;;;22.58;13.82;;;;;;;9.01;100.00;98647.38;5046040;28;20798;-76
2022/04/26 06:51:30;;;;;;;17.23;12.23;;;;;;;9.01;100.00;98640.06;5047241;28;20061;-75
2022/04/26 06:53:57;;;;;;;16.75;11.13;;;;;;;9.08;100.00;98659.16;5036143;28;20119;-76
2022/04/26 06:56:25;;;;;;;17.63;11.23;;;;;;;9.11;100.00;98668.75;5044045;28;20409;-76
2022/04/26 06:58:51;;;;;;;19.08;12.18;;;;;;;9.16;100.00;98661.75;5046223;28;20055;-76
2022/04/26 07:01:18;;;;;;;17.10;11.68;;;;;;;9.18;100.00;98669.69;5041187;28;20416;-76
2022/04/26 07:03:44;;;;;;;18.23;12.20;;;;;;;9.14;100.00;98663.81;5035536;28;20052;-77
2022/04/26 07:06:11;;;;;;;20.85;12.80;;;;;;;9.08;100.00;98636.59;5043362;28;20055;-76
2022/04/26 07:08:37;;;;;;;19.30;12.77;;;;;;;9.25;100.00;98650.81;5044647;28;20045;-76
2022/04/26 07:11:04;;;;;;;17.67;12.10;;;;;;;9.28;100.00;98658.59;5042867;28;20049;-76
2022/04/26 07:13:32;;;;;;;20.38;12.63;;;;;;;9.24;100.00;98654.56;5045152;28;20405;-76
2022/04/26 07:15:58;;;;;;;18.85;12.18;;;;;;;9.27;100.00;98637.91;5043708;28;20528;-76
2022/04/26 07:18:26;;;;;;;17.15;12.35;;;;;;;9.19;100.00;98655.13;5038124;28;20049;-76
2022/04/26 07:20:53;;;;;;;17.95;11.93;;;;;;;9.31;100.00;98664.47;5045653;28;20053;-76
2022/04/26 07:23:20;;;;;;;19.48;12.10;;;;;;;9.30;100.00;98653.81;5031076;28;20064;-76
2022/04/26 07:25:46;;;;;;;21.15;12.50;;;;;;;9.20;100.00;98643.25;5037717;28;20049;-76
2022/04/26 07:28:13;;;;;;;18.70;12.65;;;;;;;9.36;100.00;98634.06;5045143;28;20044;-76
2022/04/26 07:30:41;;;;;;;20.58;12.93;;;;;;;9.35;100.00;98643.25;5041227;28;20394;-76
2022/04/26 07:35:54;;;;;;;21.58;13.18;;;;;;;9.55;100.00;98674.16;5038825;28;20056;-77
2022/04/26 07:38:21;;;;;;;17.95;12.10;;;;;;;9.36;100.00;98651.19;5038852;28;20404;-76
2022/04/26 07:40:47;;;;;;;18.92;12.45;;;;;;;9.48;100.00;98670.50;5038693;28;20049;-76
2022/04/26 07:43:14;;;;;;;19.23;12.48;;;;;;;9.38;100.00;98637.44;5046495;28;20049;-76
2022/04/26 07:45:44;;;;;;;17.55;12.43;;;;;;;9.46;100.00;98639.19;5046136;28;20057;-76
2022/04/26 07:48:11;;;;;;;14.38;10.52;;;;;;;9.50;100.00;98646.75;5046052;28;20041;-76
2022/04/26 07:50:38;;;;;;;13.75;10.07;;;;;;;9.56;100.00;98650.59;5040836;28;20072;-76
2022/04/26 07:53:05;;;;;;;18.27;10.45;;;;;;;9.51;100.00;98653.00;5040043;28;20110;-76
2022/04/26 07:55:32;;;;;;;17.63;10.63;;;;;;;9.65;100.00;98671.16;5040204;28;20210;-76
2022/04/26 07:57:59;;;;;;;13.40;9.38;;;;;;;9.31;100.00;98639.22;5043884;28;20048;-76
2022/04/26 08:00:26;;;;;;;13.63;9.48;;;;;;;9.52;100.00;98669.09;5046193;28;20136;-76
2022/04/26 08:02:55;;;;;;;14.50;10.20;;;;;;;9.65;100.00;98665.72;5040734;28;20061;-76
2022/04/26 08:05:21;;;;;;;8.88;7.32;;;;;;;9.59;100.00;98666.47;5041909;28;20419;-76
2022/04/26 08:07:49;;;;;;;10.05;7.47;;;;;;;9.68;100.00;98675.31;5043853;28;20045;-76
2022/04/26 08:10:16;;;;;;;10.50;7.22;;;;;;;9.67;100.00;98652.78;5048897;28;20052;-76
2022/04/26 08:12:44;;;;;;;13.38;7.00;;;;;;;9.76;100.00;98658.94;5042073;28;20384;-76
2022/04/26 08:15:13;;;;;;;11.25;6.80;;;;;;;10.04;100.00;98666.31;5043185;28;20496;-76
2022/04/26 08:17:40;;;;;;;10.30;7.45;;;;;;;10.26;100.00;98665.28;5048182;28;20053;-77
2022/04/26 08:20:10;;;;;;;11.13;7.88;;;;;;;10.53;100.00;98678.31;5040163;28;20041;-76
2022/04/26 08:22:37;;;;;;;10.52;8.05;;;;;;;10.31;100.00;98683.72;5037648;28;20103;-76
2022/04/26 08:27:47;;;;;;;13.82;8.85;;;;;;;10.53;100.00;98702.75;5035961;28;20539;-76
2022/04/26 08:30:14;;;;;;;16.58;9.23;;;;;;;10.41;100.00;98702.44;5041602;28;20040;-76
2022/04/26 08:32:42;;;;;;;14.13;9.25;;;;;;;10.51;100.00;98697.53;5032079;28;20057;-76
2022/04/26 08:35:13;;;;;;;13.40;9.68;;;;;;;10.67;100.00;98731.72;5041326;28;20068;-76
2022/04/26 08:37:40;;;;;;;13.98;8.77;;;;;;;10.41;100.00;98710.59;5041799;28;20761;-76
2022/04/26 08:40:09;;;;;;;12.38;8.32;;;;;;;10.57;100.00;98725.81;5037550;28;20473;-76
2022/04/26 08:42:36;;;;;;;11.50;8.70;;;;;;;10.91;100.00;98737.78;5034844;28;20050;-76
2022/04/26 08:45:05;;;;;;;14.07;8.77;;;;;;;10.90;100.00;98715.19;5042238;28;20040;-76
2022/04/26 08:53:02;;;;;;;11.27;8.30;;;;;;;10.89;100.00;98734.44;5043715;28;20179;-76
2022/04/26 08:55:31;;;;;;;11.90;8.68;;;;;;;11.17;100.00;98756.19;5043698;28;20067;-76
2022/04/26 08:57:58;;;;;;;12.35;8.48;;;;;;;11.20;100.00;98766.66;5038850;28;20046;-76
2022/04/26 09:00:24;;;;;;;13.00;9.05;;;;;;;10.92;100.00;98742.19;5041707;28;20041;-76
2022/04/26 09:03:02;;;;;;;13.38;8.70;;;;;;;10.94;100.00;98762.72;5037997;28;20059;-76
2022/04/26 09:05:31;;;;;;;9.70;7.55;;;;;;;10.82;100.00;98734.34;5039114;28;20049;-77
2022/04/26 09:07:58;;;;;;;11.95;8.80;;;;;;;10.80;100.00;98763.63;5043572;28;20059;-76
2022/04/26 09:10:26;;;;;;;10.88;8.63;;;;;;;10.69;100.00;98737.81;5040854;28;20068;-76
2022/04/26 09:13:04;;;;;;;10.45;8.38;;;;;;;10.58;100.00;98735.63;5044924;28;20053;-76
2022/04/26 09:15:35;;;;;;;11.45;9.27;;;;;;;10.53;100.00;98741.66;5045003;28;20061;-76
2022/04/26 09:18:17;;;;;;;14.82;10.00;;;;;;;10.65;100.00;98761.00;5048317;28;20179;-76
2022/04/26 09:20:45;;;;;;;13.68;10.05;;;;;;;10.65;100.00;98749.28;5043964;28;20784;-76
2022/04/26 09:23:16;;;;;;;11.68;8.88;;;;;;;10.58;100.00;98741.06;5044931;28;20045;-76
2022/04/26 09:25:43;;;;;;;14.23;9.43;;;;;;;10.71;100.00;98748.50;5037583;28;20507;-77
2022/04/26 09:28:10;;;;;;;12.20;9.52;;;;;;;10.55;100.00;98753.19;5047453;28;20440;-76
2022/04/26 09:30:37;;;;;;;14.65;9.98;;;;;;;10.49;100.00;98745.78;5041933;28;20047;-76
2022/04/26 09:33:03;;;;;;;13.05;9.10;;;;;;;10.65;100.00;98744.69;5039637;28;20467;-76
2022/04/26 09:35:32;;;;;;;15.13;9.82;;;;;;;10.93;100.00;98754.72;5038874;28;20068;-76
2022/04/26 09:38:00;;;;;;;13.25;9.27;;;;;;;10.91;100.00;98748.66;5041234;28;20051;-76
2022/04/26 09:40:31;;;;;;;14.90;10.23;;;;;;;11.11;100.00;98768.69;5045683;28;20049;-76
2022/04/26 09:42:58;;;;;;;11.32;8.82;;;;;;;11.11;100.00;98759.69;5036873;28;20084;-76
2022/04/26 09:45:25;;;;;;;15.52;9.52;;;;;;;10.96;100.00;98738.03;5044107;28;20041;-76
2022/04/26 09:47:57;;;;;;;13.07;9.23;;;;;;;11.33;100.00;98776.78;5038324;28;20057;-76
2022/04/26 09:50:26;;;;;;;11.93;9.82;;;;;;;11.71;100.00;98753.75;5033639;28;20061;-77
2022/04/26 09:52:55;;;;;;;13.32;9.13;;;;;;;12.24;100.00;98756.72;5034645;28;20048;-76
2022/04/26 09:55:23;;;;;;;15.60;9.35;;;;;;;12.38;100.00;98755.69;5040984;28;20052;-76
2022/04/26 09:57:52;;;;;;;13.90;9.60;;;;;;;12.25;100.00;98757.56;5036485;28;20053;-76
2022/04/26 10:00:19;;;;;;;13.63;7.70;;;;;;;12.73;100.00;98790.13;5046622;28;20056;-76
2022/04/26 10:02:47;;;;;;;13.80;8.93;;;;;;;12.72;99.63;98750.28;5035188;28;20041;-76
2022/04/26 10:05:20;;;;;;;10.60;8.00;;;;;;;12.93;94.34;98779.22;5045566;28;20071;-76
2022/04/26 10:07:48;;;;;;;11.13;8.23;;;;;;;12.44;95.58;98775.84;5044811;28;20052;-76
2022/04/26 10:10:15;;;;;;;13.93;8.85;;;;;;;12.07;98.35;98756.22;5041739;28;20469;-76
2022/04/26 10:13:31;;;;;;;12.52;8.77;;;;;;;11.83;96.30;98780.22;5045760;28;20055;-76
2022/04/26 10:15:30;;;;;;;8.40;7.35;;;;;;;11.77;96.45;98752.94;5044596;28;20049;-76
2022/04/26 10:17:57;;;;;;;12.48;8.52;;;;;;;11.80;94.95;98760.72;5044345;28;20041;-76
2022/04/26 10:20:41;;;;;;;11.95;9.20;;;;;;;11.75;100.00;98768.66;5047144;28;20046;-76
2022/04/26 10:23:08;;;;;;;10.40;8.23;;;;;;;12.02;100.00;98781.38;5042128;28;20496;-76
2022/04/26 10:25:34;;;;;;;9.73;7.82;;;;;;;12.40;94.56;98771.84;5041170;28;20049;-76
2022/04/26 10:28:26;;;;;;;9.77;6.90;;;;;;;12.63;90.62;98790.56;5047937;28;20051;-76
2022/04/26 10:30:54;;;;;;;11.55;7.10;;;;;;;12.86;89.96;98778.41;5041199;28;20052;-76
2022/04/26 10:33:38;;;;;;;8.65;6.97;;;;;;;12.84;86.20;98762.25;5042142;28;20049;-77
2022/04/26 10:36:32;;;;;;;8.23;6.20;;;;;;;12.87;84.32;98761.84;5037278;28;20500;-76
2022/04/26 10:39:36;;;;;;;9.07;7.10;;;;;;;12.61;86.90;98797.25;5036131;28;20042;-76
2022/04/26 10:42:06;;;;;;;10.45;6.50;;;;;;;12.35;85.77;98787.97;5041769;28;20571;-76
2022/04/26 10:44:40;;;;;;;7.70;5.57;;;;;;;12.82;83.69;98783.44;5041258;28;20342;-76
2022/04/26 10:47:27;;;;;;;7.65;5.38;;;;;;;13.05;80.52;98754.88;5056445;28;20045;-76
2022/04/26 10:49:54;;;;;;;9.85;5.85;;;;;;;13.27;83.78;98769.97;5043016;28;20446;-77
2022/04/26 10:52:49;;;;;;;7.57;5.88;;;;;;;13.45;81.20;98774.81;5047665;28;20056;-76
2022/04/26 10:55:28;;;;;;;7.63;5.65;;;;;;;13.65;77.83;98779.38;5042330;28;20059;-77
2022/04/26 10:57:57;;;;;;;11.57;4.53;;;;;;;13.33;75.47;98765.56;5044733;28;20319;-77
2022/04/26 11:00:33;;;;;;;7.43;5.13;;;;;;;12.98;74.51;98787.66;5049323;28;20061;-76
2022/04/26 11:03:03;;;;;;;6.78;4.32;;;;;;;12.70;72.33;98776.91;5038154;28;20049;-76
2022/04/26 11:05:32;;;;;;;10.70;4.50;;;;;;;12.66;71.17;98779.25;5045276;28;20045;-76
2022/04/26 11:08:01;;;;;;;6.43;4.73;;;;;;;12.73;70.57;98788.25;5040288;28;20037;-76
2022/04/26 11:11:00;;;;;;;5.63;3.97;;;;;;;12.65;70.66;98771.25;5052101;28;20647;-76
2022/04/26 11:13:31;;;;;;;5.82;4.30;;;;;;;12.70;74.62;98796.00;5049230;28;20056;-76
2022/04/26 11:16:09;;;;;;;6.20;4.82;;;;;;;12.28;80.94;98820.66;5050268;28;20079;-76
2022/04/26 11:18:40;;;;;;;4.25;3.65;;;;;;;11.78;81.13;98806.38;5045242;28;20045;-76
2022/04/26 11:21:06;;;;;;;6.40;3.88;;;;;;;11.52;86.02;98803.28;5050393;28;20059;-77
2022/04/26 11:29:20;;;;;;;3.25;2.95;;;;;;;11.67;81.95;98849.47;5047908;28;20068;-77
2022/04/26 11:31:48;;;;;;;4.72;2.70;;;;;;;11.75;81.46;98853.06;5035561;28;20046;-76
2022/04/26 11:34:15;;;;;;;4.45;3.10;;;;;;;11.38;79.19;98822.44;5032614;28;20061;-76
2022/04/26 11:36:41;;;;;;;3.08;2.47;;;;;;;11.27;80.42;98841.00;5042661;28;20048;-76
2022/04/26 11:39:08;;;;;;;2.17;1.92;;;;;;;11.57;80.92;98878.91;5033000;28;20559;-76
2022/04/26 11:41:35;;;;;;;3.40;2.10;;;;;;;11.44;78.67;98846.16;5036969;28;20472;-76
2022/04/26 11:44:06;;;;;;;2.17;1.45;;;;;;;11.33;79.85;98844.81;5037317;28;20060;-76
2022/04/26 11:46:32;;;;;;;2.67;1.63;;;;;;;11.05;81.41;98842.06;5039084;28;20044;-76
2022/04/26 11:49:00;;;;;;;3.85;2.13;;;;;;;10.96;90.32;98842.22;5045243;28;20044;-76
2022/04/26 11:51:27;;;;;;;5.20;2.30;;;;;;;11.23;94.89;98856.06;5043729;28;20051;-76
2022/04/26 11:53:54;;;;;;;3.85;2.22;;;;;;;10.93;94.97;98872.53;5041801;28;20053;-76
2022/04/26 11:56:21;;;;;;;3.25;2.35;;;;;;;10.86;92.43;98855.31;5044924;28;20075;-76
2022/04/26 11:58:47;;;;;;;6.03;2.47;;;;;;;10.92;91.89;98849.09;5048942;28;20037;-76
2022/04/26 12:01:16;;;;;;;2.95;2.28;;;;;;;10.95;90.59;98854.13;5045766;28;20416;-76
2022/04/26 12:03:47;;;;;;;3.35;2.58;;;;;;;11.08;85.87;98847.13;5043627;28;20167;-76
2022/04/26 12:06:17;;;;;;;3.70;2.53;;;;;;;11.73;89.74;98847.81;5048305;28;20061;-76
2022/04/26 12:08:45;;;;;;;6.95;2.83;;;;;;;12.17;82.19;98860.22;5047420;28;20075;-77
2022/04/26 12:11:17;;;;;;;4.68;2.63;;;;;;;12.95;72.71;98859.00;5047049;28;20060;-76
2022/04/26 12:13:45;;;;;;;4.57;1.98;;;;;;;12.91;67.16;98847.66;5044422;28;20138;-76
2022/04/26 12:16:16;;;;;;;2.00;1.50;;;;;;;12.57;64.97;98857.66;5046569;28;20049;-76
2022/04/26 12:18:54;;;;;;;1.55;1.45;;;;;;;13.23;62.69;98886.13;5045048;28;20052;-76
2022/04/26 12:21:24;;;;;;;5.13;1.55;;;;;;;13.39;60.08;98849.38;5048335;28;20049;-76
2022/04/26 12:24:13;;;;;;;1.20;1.00;;;;;;;13.97;57.31;98876.00;5044962;28;20059;-76
2022/04/26 12:26:49;;;;;;;1.58;1.10;;;;;;;13.66;55.82;98873.13;5046150;28;20055;-76
2022/04/26 12:29:16;;;;;;;2.63;1.00;;;;;;;13.60;53.23;98889.28;5043576;28;20509;-76
2022/04/26 12:31:44;;;;;;;3.20;1.50;;;;;;;13.95;54.40;98866.31;5047948;28;20053;-76
2022/04/26 12:34:16;;;;;;;2.53;1.60;;;;;;;13.92;55.09;98873.03;5041524;28;20218;-76
2022/04/26 12:36:58;;;;;;;1.52;1.33;;;;;;;13.86;50.78;98884.00;5046769;28;20049;-76
2022/04/26 12:39:30;;;;;;;7.47;1.45;;;;;;;13.74;51.11;98856.50;5040059;28;20061;-76
2022/04/26 12:41:58;;;;;;;3.58;1.98;;;;;;;13.33;54.21;98882.97;5046260;28;20049;-76
2022/04/26 12:44:25;;;;;;;5.40;1.60;;;;;;;13.09;54.57;98870.78;5044826;28;20056;-76
2022/04/26 12:52:32;;;;;;;5.35;1.92;;;;;;;12.38;66.71;98889.25;5042443;28;20064;-76
2022/04/26 12:54:58;;;;;;;5.53;3.80;;;;;;;12.20;74.11;98881.63;5044102;28;20512;-76
2022/04/26 12:57:25;;;;;;;4.47;3.53;;;;;;;12.53;75.51;98908.19;5042435;28;20056;-76
2022/04/26 12:59:51;;;;;;;7.05;3.88;;;;;;;12.48;74.00;98879.84;5044586;28;20052;-76
2022/04/26 13:02:18;;;;;;;4.43;3.05;;;;;;;12.34;74.12;98887.97;5044070;28;20057;-75
2022/04/26 13:04:44;;;;;;;5.97;3.00;;;;;;;12.38;76.88;98882.97;5044558;28;20049;-76
2022/04/26 13:07:11;;;;;;;4.30;3.00;;;;;;;12.39;72.22;98890.94;5046096;28;20064;-76
2022/04/26 13:09:38;;;;;;;4.90;2.53;;;;;;;12.49;73.30;98896.00;5042577;28;20042;-76
2022/04/26 13:12:05;;;;;;;3.22;2.28;;;;;;;13.25;68.84;98913.22;5044466;28;20044;-76
2022/04/26 13:14:35;;;;;;;10.10;2.05;;;;;;;13.23;67.87;98921.59;5050363;28;20123;-76
2022/04/26 13:17:02;;;;;;;2.10;1.80;;;;;;;13.06;67.14;98890.28;5050767;28;20045;-76
2022/04/26 13:19:29;;;;;;;2.28;1.75;;;;;;;13.24;65.17;98895.13;5050109;28;20484;-76
2022/04/26 13:21:55;;;;;;;2.70;1.90;;;;;;;13.06;65.68;98925.75;5041598;28;20053;-76
2022/04/26 13:24:28;;;;;;;2.40;2.08;;;;;;;12.92;61.38;98883.97;5044921;28;20063;-76
2022/04/26 13:26:56;;;;;;;1.02;0.93;;;;;;;12.86;62.55;98929.28;5046007;28;20072;-76
2022/04/26 13:29:22;;;;;;;1.17;0.80;;;;;;;12.73;62.98;98900.06;5048632;28;20045;-76
2022/04/26 13:31:49;;;;;;;1.27;0.80;;;;;;;12.93;60.63;98924.69;5041790;28;20053;-76
2022/04/26 13:34:15;;;;;;;0.82;0.63;;;;;;;12.48;62.28;98893.47;5040872;28;20057;-76
2022/04/26 13:36:42;;;;;;;2.10;0.93;;;;;;;12.73;63.41;98902.78;5046925;28;20495;-76
2022/04/26 13:39:09;;;;;;;1.88;1.25;;;;;;;12.83;61.86;98909.78;5048039;28;20055;-76
2022/04/26 13:41:35;;;;;;;1.67;1.33;;;;;;;12.56;64.07;98915.13;5052154;28;20207;-76
2022/04/26 13:44:03;;;;;;;1.48;1.38;;;;;;;12.72;65.94;98897.53;5049778;28;20501;-76
2022/04/26 13:46:30;;;;;;;1.40;1.30;;;;;;;13.02;62.48;98939.00;5053806;28;20048;-76
2022/04/26 13:48:57;;;;;;;1.73;1.20;;;;;;;12.93;61.80;98910.19;5052274;28;20138;-76
2022/04/26 13:51:29;;;;;;;1.40;1.00;;;;;;;13.59;60.97;98919.53;5045998;28;20111;-77
2022/04/26 13:53:55;;;;;;;0.90;0.90;;;;;;;14.01;60.60;98902.91;5050830;28;20484;-77
2022/04/26 13:56:22;;;;;;;3.08;1.08;;;;;;;14.05;58.59;98895.97;5047515;28;20041;-76
2022/04/26 13:58:48;;;;;;;2.97;1.30;;;;;;;14.62;58.13;98910.72;5050081;28;20053;-77
2022/04/26 14:01:16;;;;;;;1.83;0.90;;;;;;;14.72;58.79;98914.88;5036919;28;20049;-77
2022/04/26 14:03:43;;;;;;;1.55;0.82;;;;;;;14.51;54.78;98887.59;5035038;28;20052;-77
2022/04/26 14:06:10;;;;;;;1.10;1.00;;;;;;;14.51;53.56;98894.94;5053174;28;20053;-77
2022/04/26 14:08:37;;;;;;;1.30;0.82;;;;;;;14.06;55.04;98894.88;5053226;28;20500;-76
2022/04/26 14:11:04;;;;;;;1.10;0.90;;;;;;;13.63;60.04;98899.78;5044534;28;20045;-76
2022/04/26 14:21:46;;;;;;;5.38;1.67;;;;;;;13.05;60.85;98907.69;5052277;28;20128;-77
2022/04/26 14:21:49;;;;;;;2.03;1.25;;;;;;;14.05;58.28;98913.19;5046998;28;20512;-77
2022/04/26 14:24:15;;;;;;;0.98;0.88;;;;;;;13.90;57.78;98921.63;5051874;28;20057;-77
2022/04/26 14:26:42;;;;;;;1.20;1.10;;;;;;;13.58;56.22;98902.31;5049264;28;20052;-76
2022/04/26 14:29:09;;;;;;;1.75;1.27;;;;;;;13.68;57.39;98928.38;5048676;28;20057;-77
2022/04/26 14:31:37;;;;;;;1.33;1.00;;;;;;;13.77;57.82;98907.97;5044614;28;20481;-77
2022/04/26 14:34:03;;;;;;;1.13;0.70;;;;;;;13.57;59.50;98935.31;5051925;28;20412;-76
2022/04/26 14:36:30;;;;;;;2.83;0.93;;;;;;;13.71;61.93;98933.41;5052561;28;20049;-76
2022/04/26 14:38:57;;;;;;;0.70;0.70;;;;;;;13.45;58.81;98921.44;5052564;28;20053;-76
2022/04/26 14:41:23;;;;;;;0.82;0.80;;;;;;;13.70;59.08;98931.72;5052185;28;20394;-77
2022/04/26 14:43:50;;;;;;;0.90;0.90;;;;;;;13.37;59.31;98910.69;5047157;28;20048;-76
2022/04/26 14:46:16;;;;;;;0.80;0.80;;;;;;;13.80;58.34;98900.22;5049338;28;20048;-77
2022/04/26 14:48:44;;;;;;;2.08;0.73;;;;;;;14.75;59.08;98896.09;5052745;28;20055;-77
2022/04/26 14:51:11;;;;;;;0.63;0.63;;;;;;;14.88;57.70;98897.94;5051066;28;20052;-77
2022/04/26 14:53:38;;;;;;;0.90;0.70;;;;;;;15.12;52.87;98901.78;5051224;28;20405;-77
2022/04/26 14:56:05;;;;;;;1.52;0.63;;;;;;;14.85;53.91;98896.47;5052271;28;20053;-77
2022/04/26 14:58:33;;;;;;;1.17;0.65;;;;;;;14.92;53.81;98898.34;5052211;28;20057;-77
2022/04/26 15:00:59;;;;;;;1.02;0.70;;;;;;;15.21;53.47;98907.84;5046185;28;20037;-77
2022/04/26 15:03:27;;;;;;;1.80;0.88;;;;;;;15.29;52.79;98915.78;5047741;28;20049;-77
2022/04/26 15:05:55;;;;;;;2.03;0.80;;;;;;;14.91;55.49;98899.41;5050106;28;20048;-77
2022/04/26 15:11:06;;;;;;;1.30;0.60;;;;;;;13.64;54.85;98925.22;5051069;28;20148;-77
2022/04/26 15:19:01;;;;;;;2.50;1.42;;;;;;;13.18;61.32;98921.38;5044482;28;20545;-77
2022/04/26 15:21:29;;;;;;;2.55;1.17;;;;;;;13.13;65.26;98951.19;5048128;28;20048;-77
2022/04/26 15:23:56;;;;;;;2.08;1.52;;;;;;;12.73;67.07;98930.06;5050522;28;20056;-77
2022/04/26 15:26:24;;;;;;;1.95;1.20;;;;;;;12.61;67.57;98960.88;5050741;28;20056;-77
2022/04/26 15:28:51;;;;;;;3.28;1.33;;;;;;;12.46;66.74;98953.66;5051595;28;20049;-77
2022/04/26 15:31:18;;;;;;;1.88;1.38;;;;;;;12.31;66.58;98933.88;5051001;28;20052;-76
2022/04/26 15:33:45;;;;;;;1.92;1.42;;;;;;;11.74;68.33;98935.81;5050665;28;20084;-76
2022/04/26 15:36:11;;;;;;;2.20;1.60;;;;;;;11.75;70.28;98938.31;5051663;28;20056;-76
2022/04/26 15:38:39;;;;;;;2.72;1.42;;;;;;;11.92;70.61;98957.09;5051719;28;20493;-76
2022/04/26 15:41:06;;;;;;;1.88;1.40;;;;;;;11.96;71.04;98923.84;5043918;28;20049;-76
2022/04/26 15:43:33;;;;;;;2.03;1.30;;;;;;;12.12;71.99;98946.34;5050760;28;20056;-76
2022/04/26 15:46:01;;;;;;;2.03;1.30;;;;;;;12.00;72.89;98960.53;5051022;28;20055;-76
2022/04/26 15:48:28;;;;;;;3.42;1.55;;;;;;;12.00;74.37;98976.88;5051299;28;20056;-76